Time;durP1;ratioP1;P1;durP2;ratioP2;P2;SDS_P1;SDS_P2;PMS_P1;PMS_P2;Temp;Humidity;BMP_temperature;BMP_pressure;BME280_temperature;BME280_humidity;BME280_pressure;Samples;Min_cycle;Max_cycle;Signal;HPM_P1;HPM_P2
2022/05/30 00:00:44;;;;;;;5.10;2.10;;;17.00;99.90;;;;;;5051590;28;20048;-52
2022/05/30 00:03:49;;;;;;;4.65;2.05;;;17.00;99.90;;;;;;5052392;28;20044;-51
2022/05/30 00:06:53;;;;;;;7.85;2.20;;;17.00;99.90;;;;;;5050815;28;20067;-51
2022/05/30 00:09:57;;;;;;;3.58;2.25;;;16.90;99.90;;;;;;5051406;28;20411;-52
2022/05/30 00:13:00;;;;;;;3.35;2.42;;;16.90;99.90;;;;;;5051724;28;20056;-50
2022/05/30 00:16:09;;;;;;;6.40;2.55;;;16.90;99.90;;;;;;5052432;28;20052;-50
2022/05/30 00:19:14;;;;;;;5.32;3.17;;;16.90;99.90;;;;;;5050908;28;20064;-51
2022/05/30 00:22:18;;;;;;;3.75;2.30;;;16.90;99.90;;;;;;5051846;28;20044;-51
2022/05/30 00:25:21;;;;;;;3.95;2.40;;;17.00;99.90;;;;;;5052166;28;20431;-50
2022/05/30 00:28:26;;;;;;;6.13;2.47;;;17.00;99.90;;;;;;5050748;28;20511;-51
2022/05/30 00:31:30;;;;;;;6.38;2.90;;;16.90;99.90;;;;;;5051162;28;20047;-57
2022/05/30 00:34:36;;;;;;;7.90;2.75;;;16.80;99.90;;;;;;5052449;28;20048;-50
2022/05/30 00:37:40;;;;;;;8.07;2.95;;;16.70;99.90;;;;;;5050838;28;20214;-50
2022/05/30 00:40:44;;;;;;;6.43;3.03;;;16.70;99.90;;;;;;5049881;28;20534;-50
2022/05/30 00:43:48;;;;;;;5.18;2.75;;;16.70;99.90;;;;;;5051834;28;20423;-50
2022/05/30 00:46:52;;;;;;;8.10;2.92;;;16.70;99.90;;;;;;5050602;28;20044;-51
2022/05/30 00:49:57;;;;;;;5.05;3.13;;;16.80;99.90;;;;;;5050137;28;20068;-51
2022/05/30 00:53:00;;;;;;;4.95;2.75;;;16.90;99.90;;;;;;5051459;28;20068;-53
2022/05/30 00:56:08;;;;;;;7.25;3.08;;;17.00;99.90;;;;;;5050953;28;20519;-51
2022/05/30 00:59:13;;;;;;;8.93;3.50;;;17.10;99.90;;;;;;5049682;28;20052;-51
2022/05/30 01:02:18;;;;;;;3.88;2.67;;;17.10;99.90;;;;;;5050975;28;20044;-50
2022/05/30 01:08:54;;;;;;;5.35;3.10;;;17.10;99.90;;;;;;5044748;28;20530;-54
2022/05/30 01:12:02;;;;;;;5.43;2.80;;;17.10;99.90;;;;;;5050212;28;20044;-53
2022/05/30 01:15:13;;;;;;;5.15;2.50;;;17.10;99.90;;;;;;5050386;28;20052;-54
2022/05/30 01:18:31;;;;;;;6.00;2.90;;;17.10;99.90;;;;;;5050203;28;20403;-51
2022/05/30 01:21:35;;;;;;;4.30;2.33;;;17.20;99.90;;;;;;5049833;28;20405;-51
2022/05/30 01:25:15;;;;;;;10.52;3.50;;;17.30;99.90;;;;;;5049887;28;20048;-52
2022/05/30 01:29:05;;;;;;;8.05;2.83;;;17.30;99.90;;;;;;5050600;28;20514;-53
2022/05/30 01:32:09;;;;;;;6.05;2.72;;;17.30;99.90;;;;;;5051049;28;20063;-53
2022/05/30 01:35:22;;;;;;;6.78;2.53;;;17.30;99.90;;;;;;5048862;28;20052;-52
2022/05/30 01:38:28;;;;;;;4.65;2.70;;;17.20;99.90;;;;;;5048800;28;20043;-55
2022/05/30 01:41:33;;;;;;;11.27;3.50;;;17.20;99.90;;;;;;5049749;28;20052;-54
2022/05/30 01:44:37;;;;;;;5.22;2.67;;;17.30;99.90;;;;;;5048622;28;20071;-52
2022/05/30 01:47:41;;;;;;;6.22;2.90;;;17.30;99.90;;;;;;5048479;28;20052;-52
2022/05/30 01:50:47;;;;;;;9.13;3.42;;;17.20;99.90;;;;;;5049622;28;20052;-54
2022/05/30 01:54:01;;;;;;;6.35;2.95;;;17.20;99.90;;;;;;5048824;28;20044;-51
2022/05/30 01:57:08;;;;;;;6.63;2.95;;;17.10;99.90;;;;;;5048232;28;20527;-51
2022/05/30 02:00:21;;;;;;;8.23;3.45;;;17.00;99.90;;;;;;5048297;28;20044;-51
2022/05/30 02:03:27;;;;;;;4.45;3.25;;;16.90;99.90;;;;;;5049112;28;20423;-51
2022/05/30 02:06:32;;;;;;;8.15;3.20;;;16.90;99.90;;;;;;5047874;28;20335;-51
2022/05/30 02:09:36;;;;;;;8.07;3.53;;;16.90;99.90;;;;;;5048695;28;20052;-51
2022/05/30 02:12:41;;;;;;;8.63;3.35;;;16.90;99.90;;;;;;5049205;28;20055;-52
2022/05/30 02:19:19;;;;;;;;;;;17.00;99.90;;;;;;5049270;28;20048;-51
2022/05/30 02:22:29;;;;;;;6.10;3.42;;;17.00;99.90;;;;;;5049435;28;20373;-51
2022/05/30 02:25:34;;;;;;;5.20;2.83;;;17.00;99.90;;;;;;5048716;28;20044;-51
2022/05/30 02:28:37;;;;;;;8.32;3.25;;;17.10;99.90;;;;;;5048027;28;20055;-53
2022/05/30 02:31:42;;;;;;;6.60;2.85;;;17.10;99.90;;;;;;5048578;28;20052;-50
2022/05/30 02:38:08;;;;;;;;;;;17.00;99.90;;;;;;5048614;28;20036;-53
2022/05/30 02:41:31;;;;;;;9.38;3.95;;;17.00;99.90;;;;;;5049074;28;19928;-53
2022/05/30 02:44:42;;;;;;;5.45;3.22;;;17.00;99.90;;;;;;5049670;28;20051;-50
2022/05/30 02:47:46;;;;;;;11.48;3.15;;;17.00;99.90;;;;;;5048414;28;20048;-50
2022/05/30 02:50:52;;;;;;;9.52;3.65;;;17.00;99.90;;;;;;5047870;28;20040;-51
2022/05/30 02:53:56;;;;;;;10.23;3.38;;;17.00;99.90;;;;;;5049979;28;20546;-53
2022/05/30 02:57:38;;;;;;;8.88;3.22;;;17.00;99.90;;;;;;5049701;28;20044;-52
2022/05/30 03:00:43;;;;;;;6.95;4.13;;;16.90;99.90;;;;;;5047303;28;20056;-53
2022/05/30 03:03:47;;;;;;;10.20;3.42;;;16.80;99.90;;;;;;5048123;28;20510;-52
2022/05/30 03:06:52;;;;;;;10.98;3.55;;;16.90;99.90;;;;;;5048557;28;20048;-50
2022/05/30 03:09:57;;;;;;;4.57;3.25;;;16.90;99.90;;;;;;5051921;28;20048;-54
2022/05/30 03:13:15;;;;;;;8.80;4.05;;;16.80;99.90;;;;;;5051329;28;20432;-52
2022/05/30 03:16:20;;;;;;;7.80;3.42;;;16.80;99.90;;;;;;5052776;28;20515;-50
2022/05/30 03:19:24;;;;;;;5.45;3.15;;;16.90;99.90;;;;;;5051935;28;20064;-50
2022/05/30 03:22:28;;;;;;;5.88;3.05;;;16.90;99.90;;;;;;5051412;28;20040;-52
2022/05/30 03:26:06;;;;;;;7.13;3.47;;;16.90;99.90;;;;;;5040186;28;20036;-52
2022/05/30 03:29:10;;;;;;;8.20;3.40;;;16.90;99.90;;;;;;5053185;28;20076;-52
2022/05/30 03:32:20;;;;;;;6.57;3.85;;;16.90;99.90;;;;;;5051601;28;20052;-54
2022/05/30 03:35:24;;;;;;;6.65;3.05;;;16.90;99.90;;;;;;5050915;28;20040;-53
2022/05/30 03:38:43;;;;;;;12.07;3.58;;;16.90;99.90;;;;;;5052195;28;20047;-52
2022/05/30 03:42:13;;;;;;;6.85;3.13;;;16.90;99.90;;;;;;5027597;28;20412;-51
2022/05/30 03:45:42;;;;;;;7.88;3.58;;;16.90;99.90;;;;;;5050467;28;20044;-53
2022/05/30 03:48:47;;;;;;;4.72;2.67;;;16.90;99.90;;;;;;5050756;28;20047;-54
2022/05/30 03:51:51;;;;;;;6.93;3.50;;;16.90;99.90;;;;;;5052570;28;20044;-52
2022/05/30 03:54:55;;;;;;;7.93;3.05;;;16.90;99.90;;;;;;5051489;28;20063;-51
2022/05/30 03:57:58;;;;;;;8.93;2.80;;;16.80;99.90;;;;;;5050296;28;20063;-49
2022/05/30 04:01:05;;;;;;;10.30;3.60;;;16.80;99.90;;;;;;5051873;28;20043;-51
2022/05/30 04:04:10;;;;;;;8.13;2.95;;;16.80;99.90;;;;;;5051155;28;20032;-53
2022/05/30 04:07:15;;;;;;;7.20;3.67;;;16.80;99.90;;;;;;5050568;28;20044;-49
2022/05/30 04:10:39;;;;;;;8.32;3.28;;;16.70;99.90;;;;;;5051552;28;20048;-52
2022/05/30 04:14:02;;;;;;;4.07;3.17;;;16.60;99.90;;;;;;5052521;28;20526;-50
2022/05/30 04:17:27;;;;;;;10.40;4.10;;;16.60;99.90;;;;;;5051496;28;20040;-50
2022/05/30 04:20:31;;;;;;;6.88;3.22;;;16.60;99.90;;;;;;5049804;28;20068;-51
2022/05/30 04:23:40;;;;;;;6.82;3.72;;;16.60;99.90;;;;;;5051694;28;20048;-53
2022/05/30 04:26:46;;;;;;;12.23;4.20;;;16.70;99.90;;;;;;5051375;28;20048;-53
2022/05/30 04:29:51;;;;;;;7.85;3.72;;;16.80;99.90;;;;;;5050234;28;20411;-52
2022/05/30 04:33:07;;;;;;;7.85;3.45;;;16.90;99.90;;;;;;5050517;28;20052;-50
2022/05/30 04:36:14;;;;;;;6.00;3.25;;;17.00;99.90;;;;;;5050855;28;20411;-52
2022/05/30 04:39:22;;;;;;;9.02;3.05;;;17.00;99.90;;;;;;5049510;28;20044;-52
2022/05/30 04:42:46;;;;;;;5.88;3.35;;;17.00;99.90;;;;;;5050665;28;20522;-50
2022/05/30 04:46:16;;;;;;;5.65;2.85;;;17.00;99.90;;;;;;5050947;28;20032;-50
2022/05/30 04:49:25;;;;;;;7.47;2.90;;;17.00;99.90;;;;;;5051366;28;20052;-51
2022/05/30 04:52:30;;;;;;;6.30;3.00;;;17.10;99.90;;;;;;5049618;28;20411;-51
2022/05/30 04:55:38;;;;;;;9.23;2.92;;;17.10;99.90;;;;;;5050516;28;20056;-48
2022/05/30 04:58:45;;;;;;;10.85;3.55;;;17.20;99.90;;;;;;5050806;28;20060;-50
2022/05/30 05:01:55;;;;;;;5.90;3.40;;;17.10;99.90;;;;;;5049109;28;20051;-50
2022/05/30 05:05:03;;;;;;;4.95;3.03;;;17.10;99.90;;;;;;5048775;28;20052;-49
2022/05/30 05:08:16;;;;;;;10.45;3.58;;;17.20;99.90;;;;;;5049800;28;20044;-51
2022/05/30 05:11:39;;;;;;;5.75;2.97;;;17.50;99.90;;;;;;5050497;28;20044;-51
2022/05/30 05:15:06;;;;;;;4.95;2.90;;;17.70;99.90;;;;;;5040507;28;20040;-50
2022/05/30 05:18:30;;;;;;;8.55;3.00;;;17.90;99.90;;;;;;5049481;28;20048;-50
2022/05/30 05:21:37;;;;;;;7.95;3.05;;;18.20;99.90;;;;;;5050394;28;20048;-51
2022/05/30 05:24:42;;;;;;;10.55;3.35;;;18.20;99.90;;;;;;5049269;28;20052;-50
2022/05/30 05:27:48;;;;;;;8.23;3.28;;;18.20;99.90;;;;;;5049426;28;20044;-51
2022/05/30 05:30:54;;;;;;;9.63;3.30;;;18.00;99.90;;;;;;5049065;28;20043;-49
2022/05/30 05:34:00;;;;;;;11.35;4.07;;;17.80;99.90;;;;;;5049179;28;20243;-50
2022/05/30 05:37:04;;;;;;;14.50;3.25;;;17.70;99.90;;;;;;5048168;28;20514;-51
2022/05/30 05:40:15;;;;;;;6.85;3.05;;;17.80;99.90;;;;;;5048800;28;20408;-53
2022/05/30 05:43:19;;;;;;;10.43;3.97;;;18.00;99.90;;;;;;5048837;28;20040;-53
2022/05/30 05:46:28;;;;;;;5.38;2.42;;;18.00;99.90;;;;;;5047892;28;20044;-51
2022/05/30 05:49:32;;;;;;;12.43;2.67;;;18.20;99.90;;;;;;5048225;28;20044;-51
2022/05/30 05:52:37;;;;;;;5.78;2.60;;;18.40;99.90;;;;;;5048862;28;20511;-50
2022/05/30 05:55:49;;;;;;;11.93;2.85;;;18.50;99.90;;;;;;5048475;28;20044;-53
2022/05/30 05:58:54;;;;;;;10.60;2.70;;;18.70;99.90;;;;;;5047424;28;20043;-51
2022/05/30 06:01:57;;;;;;;4.78;2.60;;;18.70;99.90;;;;;;5048578;28;20040;-50
2022/05/30 06:05:02;;;;;;;9.30;2.95;;;18.80;99.90;;;;;;5048253;28;20044;-54
2022/05/30 06:08:25;;;;;;;8.10;2.83;;;19.20;99.90;;;;;;5048857;28;20046;-53
2022/05/30 06:12:00;;;;;;;5.05;2.28;;;20.00;99.90;;;;;;5048291;28;20059;-50
2022/05/30 06:15:05;;;;;;;4.95;2.03;;;19.70;99.90;;;;;;5048692;28;20047;-48
2022/05/30 06:18:12;;;;;;;9.73;2.30;;;19.60;99.90;;;;;;5047985;28;20512;-50
2022/05/30 06:21:18;;;;;;;9.02;2.22;;;19.60;99.90;;;;;;5047239;28;20044;-52
2022/05/30 06:24:25;;;;;;;5.60;2.53;;;19.40;99.90;;;;;;5048212;28;20064;-50
2022/05/30 06:28:09;;;;;;;8.77;2.10;;;19.50;99.90;;;;;;5017802;28;20205;-49
2022/05/30 06:31:27;;;;;;;5.15;2.38;;;19.80;99.90;;;;;;5023617;28;20052;-49
2022/05/30 06:34:34;;;;;;;5.05;2.70;;;20.00;99.90;;;;;;5035108;28;20044;-50
2022/05/30 06:37:37;;;;;;;7.82;3.00;;;19.10;99.90;;;;;;5047975;28;20044;-51
2022/05/30 06:40:42;;;;;;;6.10;2.65;;;18.90;99.90;;;;;;5047252;28;20052;-50
2022/05/30 06:44:07;;;;;;;5.50;3.10;;;19.40;99.90;;;;;;5049991;28;20044;-51
2022/05/30 06:47:30;;;;;;;8.77;3.15;;;19.90;99.90;;;;;;5050480;28;20044;-50
2022/05/30 06:51:09;;;;;;;6.45;2.60;;;19.70;99.90;;;;;;5045242;28;20509;-51
2022/05/30 06:54:14;;;;;;;5.65;3.25;;;19.90;99.90;;;;;;5052072;28;20047;-50
2022/05/30 07:00:44;;;;;;;8.93;3.65;;;20.80;99.90;;;;;;5050490;28;20044;-51
2022/05/30 07:04:07;;;;;;;7.07;3.58;;;21.00;99.90;;;;;;5035094;28;20052;-53
2022/05/30 07:07:30;;;;;;;10.50;3.83;;;21.20;99.90;;;;;;5045335;28;20044;-52
2022/05/30 07:10:53;;;;;;;8.40;3.97;;;21.70;99.90;;;;;;5050786;28;20044;-54
2022/05/30 07:13:58;;;;;;;11.98;4.20;;;21.60;99.90;;;;;;5046571;28;20438;-51
2022/05/30 07:17:03;;;;;;;15.05;4.53;;;21.80;99.90;;;;;;5050758;28;20075;-53
2022/05/30 07:20:08;;;;;;;14.23;4.03;;;22.30;99.90;;;;;;5049159;28;20040;-52
2022/05/30 07:23:37;;;;;;;13.35;3.58;;;23.90;99.90;;;;;;5037954;28;20087;-54
2022/05/30 07:27:20;;;;;;;8.65;3.58;;;26.10;99.90;;;;;;5048444;28;20043;-53
2022/05/30 07:30:42;;;;;;;10.85;3.60;;;27.00;99.90;;;;;;5051642;28;20055;-55
2022/05/30 07:34:06;;;;;;;15.40;4.45;;;27.10;99.90;;;;;;5049383;28;20059;-54
2022/05/30 07:37:29;;;;;;;10.85;3.55;;;26.70;99.90;;;;;;5042486;28;20055;-54
2022/05/30 07:40:49;;;;;;;10.63;3.25;;;27.00;99.90;;;;;;5060321;28;20507;-53
2022/05/30 07:44:12;;;;;;;10.82;3.50;;;27.80;99.90;;;;;;5043437;28;20056;-50
2022/05/30 07:47:28;;;;;;;15.98;3.90;;;27.00;99.90;;;;;;5046977;28;20051;-54
2022/05/30 07:50:44;;;;;;;16.50;3.35;;;26.10;99.90;;;;;;5047713;28;20040;-51
2022/05/30 07:54:09;;;;;;;8.50;3.28;;;26.30;99.90;;;;;;5051755;28;20076;-55
2022/05/30 07:57:18;;;;;;;9.63;3.05;;;28.60;99.90;;;;;;5044917;28;20040;-54
2022/05/30 08:00:25;;;;;;;9.57;2.90;;;28.90;99.90;;;;;;5045659;28;20036;-53
2022/05/30 08:03:29;;;;;;;11.98;3.33;;;30.10;99.90;;;;;;5040698;28;20051;-51
2022/05/30 08:06:59;;;;;;;7.85;3.10;;;31.30;98.30;;;;;;5048184;28;20040;-55
2022/05/30 08:10:26;;;;;;;8.30;3.13;;;32.10;97.40;;;;;;5048201;28;20059;-49
2022/05/30 08:13:30;;;;;;;9.68;3.30;;;32.30;96.40;;;;;;5047993;28;20060;-52
2022/05/30 08:16:37;;;;;;;10.93;3.85;;;32.20;95.90;;;;;;5039025;28;20039;-54
2022/05/30 08:19:41;;;;;;;10.82;4.05;;;29.30;97.60;;;;;;5037589;28;20428;-55
2022/05/30 08:22:48;;;;;;;15.65;4.18;;;28.60;98.40;;;;;;5049434;28;20055;-55
2022/05/30 08:25:53;;;;;;;14.98;3.63;;;28.80;99.40;;;;;;5048051;28;20052;-55
2022/05/30 08:28:59;;;;;;;9.30;3.10;;;30.30;96.70;;;;;;5046043;28;20052;-55
2022/05/30 08:32:06;;;;;;;6.20;2.88;;;30.10;96.20;;;;;;5043634;28;20043;-52
2022/05/30 08:35:28;;;;;;;8.77;3.30;;;30.60;97.90;;;;;;5041713;28;20041;-52
2022/05/30 08:38:37;;;;;;;10.60;3.42;;;29.40;96.10;;;;;;5044915;28;20040;-54
2022/05/30 08:41:50;;;;;;;7.78;2.70;;;27.80;96.90;;;;;;5047249;28;20040;-54
2022/05/30 08:55:04;;;;;;;9.82;2.90;;;28.80;98.10;;;;;;5049591;28;20043;-54
2022/05/30 08:58:49;;;;;;;9.75;3.85;;;29.90;95.60;;;;;;5044897;28;20040;-54
2022/05/30 09:01:59;;;;;;;12.68;4.03;;;27.70;96.70;;;;;;5051953;28;20116;-52
2022/05/30 09:05:31;;;;;;;9.40;3.17;;;28.10;96.70;;;;;;5040594;28;20036;-53
2022/05/30 09:08:47;;;;;;;12.20;3.03;;;28.40;96.70;;;;;;5047733;28;20036;-54
2022/05/30 09:12:52;;;;;;;6.57;3.08;;;28.30;96.80;;;;;;5048636;28;20040;-54
2022/05/30 09:16:31;;;;;;;15.13;4.50;;;28.30;97.90;;;;;;5044371;28;20044;-54
2022/05/30 09:19:42;;;;;;;13.40;4.30;;;26.90;98.90;;;;;;5044952;28;20039;-54
2022/05/30 09:22:48;;;;;;;12.95;3.50;;;26.30;99.60;;;;;;5043248;28;20419;-54
2022/05/30 09:25:56;;;;;;;11.20;3.35;;;28.20;98.10;;;;;;5046886;28;20036;-55
2022/05/30 09:29:27;;;;;;;17.38;4.30;;;27.30;99.00;;;;;;5044933;28;20476;-54
2022/05/30 09:33:27;;;;;;;10.20;3.77;;;26.70;99.60;;;;;;5006244;28;20543;-50
2022/05/30 09:36:34;;;;;;;12.25;4.70;;;27.20;99.80;;;;;;5006335;28;20041;-53
2022/05/30 09:39:59;;;;;;;13.20;3.70;;;26.60;99.90;;;;;;5044465;28;20052;-54
2022/05/30 09:43:06;;;;;;;12.57;3.40;;;27.90;99.40;;;;;;5044120;28;20044;-54
2022/05/30 09:46:22;;;;;;;13.20;3.70;;;26.70;99.90;;;;;;5039822;28;20388;-53
2022/05/30 09:49:50;;;;;;;11.32;3.28;;;26.90;99.90;;;;;;5043937;28;20086;-50
2022/05/30 09:52:53;;;;;;;14.10;3.33;;;29.50;98.00;;;;;;5046250;28;20044;-53
2022/05/30 09:56:02;;;;;;;22.33;4.15;;;30.40;98.10;;;;;;5066563;22;20052;-53
2022/05/30 09:59:30;;;;;;;14.85;4.18;;;29.00;97.00;;;;;;5040673;28;20055;-54
2022/05/30 10:02:45;;;;;;;10.40;3.40;;;29.80;96.20;;;;;;5047810;28;20048;-50
2022/05/30 10:05:50;;;;;;;8.65;3.35;;;29.20;96.30;;;;;;5047520;28;20427;-53
2022/05/30 10:09:21;;;;;;;8.52;2.47;;;31.50;95.70;;;;;;5046214;28;20055;-50
2022/05/30 10:12:31;;;;;;;7.55;3.15;;;33.00;94.00;;;;;;5042942;28;20419;-53
2022/05/30 10:15:57;;;;;;;8.37;2.97;;;32.40;94.40;;;;;;5043589;28;20039;-55
2022/05/30 10:19:10;;;;;;;8.48;3.00;;;35.50;92.30;;;;;;5045106;28;20040;-53
2022/05/30 10:30:33;;;;;;;11.52;3.10;;;36.50;90.30;;;;;;5046202;28;20501;-53
2022/05/30 10:34:04;;;;;;;20.77;3.50;;;32.00;89.80;;;;;;5025644;28;20510;-50
2022/05/30 10:37:31;;;;;;;12.55;3.70;;;31.70;92.10;;;;;;5045070;28;20048;-51
2022/05/30 10:40:54;;;;;;;13.38;3.55;;;31.30;92.10;;;;;;5046048;28;20423;-51
2022/05/30 10:44:01;;;;;;;13.40;3.53;;;30.70;93.30;;;;;;5047215;28;20048;-50
2022/05/30 10:47:16;;;;;;;16.77;4.43;;;30.20;92.80;;;;;;5044686;28;20051;-51
2022/05/30 10:50:46;;;;;;;17.02;3.80;;;29.80;94.10;;;;;;5057643;28;20507;-51
2022/05/30 10:54:26;;;;;;;7.38;3.35;;;31.80;92.90;;;;;;5043338;28;20407;-52
2022/05/30 10:57:47;;;;;;;11.77;3.53;;;32.70;92.30;;;;;;5042724;28;20048;-55
2022/05/30 11:01:00;;;;;;;14.48;3.13;;;33.80;91.30;;;;;;5044801;28;20040;-51
2022/05/30 11:04:21;;;;;;;10.05;2.88;;;31.90;91.70;;;;;;5044691;28;20036;-51
2022/05/30 11:07:38;;;;;;;13.38;2.95;;;33.40;90.30;;;;;;5043136;28;20048;-54
2022/05/30 11:11:05;;;;;;;13.05;2.80;;;33.40;90.90;;;;;;5044882;28;20048;-53
2022/05/30 11:14:22;;;;;;;14.13;3.47;;;35.00;90.30;;;;;;5046418;28;20048;-51
2022/05/30 11:17:54;;;;;;;8.00;2.58;;;32.10;92.20;;;;;;5042000;28;20531;-54
2022/05/30 11:21:13;;;;;;;15.18;3.53;;;32.20;91.30;;;;;;5044212;28;20067;-56
2022/05/30 11:24:18;;;;;;;28.48;4.10;;;34.00;91.00;;;;;;5036590;28;20055;-55
2022/05/30 11:27:31;;;;;;;7.05;2.65;;;34.80;90.00;;;;;;5045260;28;20044;-54
2022/05/30 11:30:54;;;;;;;9.65;3.03;;;35.10;87.70;;;;;;5049755;28;20063;-53
2022/05/30 11:34:04;;;;;;;8.93;3.03;;;34.80;88.70;;;;;;5050386;28;20636;-51
2022/05/30 11:37:37;;;;;;;12.07;2.88;;;36.00;86.70;;;;;;5043686;28;20036;-56
2022/05/30 11:40:57;;;;;;;7.57;2.67;;;36.40;87.10;;;;;;5044009;28;20582;-56
2022/05/30 11:44:20;;;;;;;;;;;37.00;84.70;;;;;;5047959;28;20048;-56
2022/05/30 11:47:40;;;;;;;5.63;2.40;;;36.50;79.80;;;;;;5045999;28;19908;-52
2022/05/30 11:51:19;;;;;;;9.73;2.83;;;33.60;82.40;;;;;;5049851;28;20302;-56
2022/05/30 11:54:43;;;;;;;10.40;2.80;;;31.10;88.80;;;;;;5043433;28;20736;-52
2022/05/30 11:57:52;;;;;;;7.55;2.50;;;32.70;89.70;;;;;;5046463;28;20052;-53
2022/05/30 12:00:57;;;;;;;6.57;3.00;;;34.10;85.20;;;;;;5044216;28;20056;-53
2022/05/30 12:04:16;;;;;;;11.82;3.10;;;32.50;87.40;;;;;;5050645;28;20047;-52
2022/05/30 12:07:38;;;;;;;7.70;2.85;;;30.70;89.40;;;;;;5050751;28;20048;-50
2022/05/30 12:11:20;;;;;;;8.15;2.60;;;30.50;90.40;;;;;;5050211;28;20519;-53
2022/05/30 12:14:54;;;;;;;6.60;2.47;;;31.10;88.90;;;;;;5048094;28;20036;-52
2022/05/30 12:24:57;;;;;;;11.52;2.80;;;27.40;91.70;;;;;;5038953;28;20052;-54
2022/05/30 12:28:27;;;;;;;10.68;3.38;;;29.20;91.80;;;;;;5046980;28;20048;-53
2022/05/30 12:31:38;;;;;;;10.18;2.97;;;30.40;90.90;;;;;;5037224;28;20044;-48
2022/05/30 12:35:01;;;;;;;9.80;2.75;;;30.30;91.50;;;;;;5039713;28;20049;-49
2022/05/30 12:38:09;;;;;;;11.98;3.20;;;31.70;90.80;;;;;;5044391;28;20040;-53
2022/05/30 12:41:18;;;;;;;10.30;3.08;;;31.30;90.40;;;;;;5045272;28;20044;-51
2022/05/30 12:44:46;;;;;;;10.57;2.95;;;32.30;89.10;;;;;;5045172;28;20039;-55
2022/05/30 12:47:55;;;;;;;10.07;2.90;;;31.50;90.00;;;;;;5049728;28;20032;-50
2022/05/30 12:51:15;;;;;;;9.23;2.88;;;31.60;90.40;;;;;;5040312;28;20051;-52
2022/05/30 12:54:25;;;;;;;7.95;2.53;;;32.50;89.80;;;;;;5050600;28;20052;-52
2022/05/30 12:57:42;;;;;;;6.25;2.45;;;32.50;87.70;;;;;;5048902;28;20044;-50
2022/05/30 13:01:05;;;;;;;5.97;3.03;;;33.10;87.30;;;;;;5047249;28;20044;-50
2022/05/30 13:04:16;;;;;;;9.35;2.70;;;33.60;85.90;;;;;;5042575;28;20400;-51
2022/05/30 13:07:30;;;;;;;9.07;2.33;;;34.10;84.90;;;;;;5043295;28;20087;-52
2022/05/30 13:10:41;;;;;;;13.73;3.03;;;34.10;84.40;;;;;;5046557;28;20404;-51
2022/05/30 13:13:50;;;;;;;6.10;2.30;;;34.30;84.40;;;;;;5044629;28;20068;-52
2022/05/30 13:17:30;;;;;;;9.50;2.30;;;33.80;84.20;;;;;;5043744;28;20066;-52
2022/05/30 13:20:51;;;;;;;7.70;2.40;;;33.90;87.60;;;;;;5048575;28;20059;-51
2022/05/30 13:23:55;;;;;;;13.55;2.58;;;34.20;84.80;;;;;;5047933;28;20048;-50
2022/05/30 13:27:01;;;;;;;8.27;2.13;;;33.80;82.80;;;;;;5047092;28;20062;-50
2022/05/30 13:30:13;;;;;;;11.27;2.70;;;32.80;82.90;;;;;;5044930;28;20040;-51
2022/05/30 13:33:27;;;;;;;9.63;2.53;;;31.90;82.80;;;;;;5046759;28;20043;-51
2022/05/30 13:36:33;;;;;;;9.40;3.30;;;29.00;85.60;;;;;;5046025;28;20032;-51
2022/05/30 13:39:44;;;;;;;9.30;2.50;;;29.40;87.00;;;;;;5047651;28;20044;-51
2022/05/30 13:42:51;;;;;;;5.80;2.28;;;29.60;87.50;;;;;;5046960;28;20502;-50
2022/05/30 13:45:57;;;;;;;9.32;2.47;;;29.40;86.50;;;;;;5048208;28;20044;-51
2022/05/30 13:49:00;;;;;;;7.30;2.13;;;29.30;87.40;;;;;;5047033;28;20546;-53
2022/05/30 13:52:12;;;;;;;9.55;2.60;;;29.40;88.70;;;;;;5049383;28;20056;-51
2022/05/30 13:55:22;;;;;;;12.50;2.50;;;29.40;89.60;;;;;;5045538;28;20510;-56
2022/05/30 13:58:31;;;;;;;10.90;2.92;;;28.50;89.50;;;;;;5045938;28;20427;-50
2022/05/30 14:01:38;;;;;;;8.80;2.67;;;27.30;90.20;;;;;;5047645;28;20052;-55
2022/05/30 14:04:46;;;;;;;8.55;2.60;;;26.90;90.30;;;;;;5047840;28;20396;-56
2022/05/30 14:07:50;;;;;;;17.15;3.45;;;26.20;91.20;;;;;;5044940;28;20032;-56
2022/05/30 14:10:54;;;;;;;9.05;3.17;;;26.40;94.30;;;;;;5045196;28;20048;-56
2022/05/30 14:13:59;;;;;;;13.88;3.33;;;26.30;95.00;;;;;;5047502;28;20044;-56
2022/05/30 14:17:04;;;;;;;17.15;3.30;;;26.20;95.70;;;;;;5047652;28;20048;-54
2022/05/30 14:20:23;;;;;;;13.23;3.33;;;26.40;96.60;;;;;;5047078;28;20036;-54
2022/05/30 14:23:29;;;;;;;15.27;3.65;;;26.30;97.40;;;;;;5048848;28;20503;-52
2022/05/30 14:26:35;;;;;;;12.82;2.97;;;25.80;97.60;;;;;;5041720;28;20044;-55
2022/05/30 14:29:43;;;;;;;15.07;3.47;;;25.30;98.70;;;;;;5045579;28;20044;-55
2022/05/30 14:33:05;;;;;;;18.00;3.92;;;25.00;99.80;;;;;;5045409;28;20514;-54
2022/05/30 14:36:37;;;;;;;21.02;3.53;;;25.00;99.90;;;;;;5046773;28;20412;-53
2022/05/30 14:39:49;;;;;;;13.18;3.05;;;25.10;99.90;;;;;;5046671;28;20048;-55
2022/05/30 14:42:55;;;;;;;15.63;3.92;;;24.90;99.90;;;;;;5036884;28;20044;-53
2022/05/30 14:46:01;;;;;;;11.27;3.03;;;24.80;99.90;;;;;;5047848;28;20435;-55
2022/05/30 14:49:23;;;;;;;21.70;4.45;;;24.50;99.90;;;;;;5047055;28;20048;-56
2022/05/30 14:52:34;;;;;;;11.45;2.88;;;24.40;99.90;;;;;;5041172;28;20052;-55
2022/05/30 14:56:01;;;;;;;14.43;3.70;;;24.20;99.90;;;;;;5043434;28;20407;-56
2022/05/30 14:59:07;;;;;;;13.60;3.53;;;24.10;99.90;;;;;;5046814;28;20659;-56
2022/05/30 15:05:37;;;;;;;13.30;3.38;;;24.30;99.90;;;;;;5044779;28;20035;-56
2022/05/30 15:08:41;;;;;;;12.88;3.72;;;24.40;99.90;;;;;;5046730;28;20040;-50
2022/05/30 15:11:46;;;;;;;12.15;3.80;;;24.60;99.90;;;;;;5047453;28;20048;-56
2022/05/30 15:14:50;;;;;;;15.20;4.28;;;24.80;99.90;;;;;;5047426;28;20396;-56
2022/05/30 15:17:54;;;;;;;21.35;3.88;;;25.00;99.90;;;;;;5049789;28;20044;-56
2022/05/30 15:20:58;;;;;;;11.65;3.15;;;25.30;99.90;;;;;;5048900;28;20048;-56
2022/05/30 15:24:12;;;;;;;10.13;3.20;;;25.60;99.90;;;;;;5048816;28;20043;-52
2022/05/30 15:27:17;;;;;;;11.68;3.08;;;25.80;99.90;;;;;;5048305;28;20043;-56
2022/05/30 15:30:22;;;;;;;9.85;3.22;;;25.80;99.90;;;;;;5032848;28;20052;-54
2022/05/30 15:33:25;;;;;;;11.23;3.28;;;26.10;99.90;;;;;;5051520;28;20047;-53
2022/05/30 15:36:30;;;;;;;11.85;3.35;;;26.20;99.90;;;;;;5039644;28;20043;-52
2022/05/30 15:39:35;;;;;;;11.18;3.97;;;26.10;99.90;;;;;;5052384;28;20040;-56
2022/05/30 15:42:39;;;;;;;12.60;3.47;;;25.90;99.90;;;;;;5046725;28;20040;-54
2022/05/30 15:45:43;;;;;;;18.35;4.40;;;25.50;99.90;;;;;;5050738;28;20044;-52
2022/05/30 15:48:47;;;;;;;11.27;3.72;;;25.50;99.90;;;;;;5052064;28;20503;-51
2022/05/30 15:51:53;;;;;;;13.32;3.85;;;25.60;99.90;;;;;;5051213;28;20251;-56
2022/05/30 15:58:24;;;;;;;16.05;3.40;;;26.10;99.90;;;;;;5064330;22;20048;-51
2022/05/30 16:01:28;;;;;;;11.18;3.90;;;26.00;99.90;;;;;;5031605;28;20416;-53
2022/05/30 16:04:33;;;;;;;12.52;4.03;;;26.20;99.90;;;;;;5050018;28;20045;-56
2022/05/30 16:07:38;;;;;;;10.80;2.78;;;26.30;99.90;;;;;;5036654;28;20044;-54
2022/05/30 16:10:43;;;;;;;16.38;3.40;;;26.60;99.90;;;;;;5051726;28;20047;-50
2022/05/30 16:13:47;;;;;;;11.57;3.00;;;26.40;99.90;;;;;;5051011;28;20040;-53
2022/05/30 16:16:51;;;;;;;6.93;3.05;;;26.60;99.90;;;;;;5047823;28;20060;-53
2022/05/30 16:19:55;;;;;;;12.48;3.17;;;26.00;99.90;;;;;;5051826;28;20326;-52
2022/05/30 16:23:00;;;;;;;10.98;3.67;;;25.40;99.90;;;;;;5051164;28;20044;-51
2022/05/30 16:26:08;;;;;;;9.95;2.95;;;25.40;99.90;;;;;;5047888;28;20040;-52
2022/05/30 16:29:12;;;;;;;13.25;4.05;;;25.30;99.90;;;;;;5051293;28;20040;-51
2022/05/30 16:32:17;;;;;;;13.90;3.25;;;25.10;99.90;;;;;;5050899;28;20407;-53
2022/05/30 16:35:22;;;;;;;12.25;3.97;;;25.00;99.90;;;;;;5050413;28;20048;-54
2022/05/30 16:38:27;;;;;;;14.02;3.28;;;25.00;99.90;;;;;;5050905;28;20435;-51
2022/05/30 16:41:31;;;;;;;13.02;3.38;;;24.90;99.90;;;;;;5050589;28;20056;-52
2022/05/30 16:44:35;;;;;;;8.52;3.22;;;24.90;99.90;;;;;;5050035;28;20278;-54
2022/05/30 16:47:39;;;;;;;9.93;3.00;;;25.00;99.90;;;;;;5049644;28;20329;-55
2022/05/30 16:50:44;;;;;;;23.67;3.70;;;25.00;99.90;;;;;;5030882;28;20060;-54
2022/05/30 16:53:48;;;;;;;13.55;3.63;;;25.00;99.90;;;;;;5047662;28;20420;-53
2022/05/30 16:56:57;;;;;;;10.85;3.33;;;25.10;99.90;;;;;;5050003;28;20403;-54
2022/05/30 17:00:06;;;;;;;13.32;3.42;;;25.30;99.90;;;;;;5050812;28;20431;-54
2022/05/30 17:03:11;;;;;;;12.30;3.67;;;25.40;99.90;;;;;;5050299;28;20047;-54
2022/05/30 17:06:15;;;;;;;11.70;2.90;;;25.50;99.90;;;;;;5049102;28;20048;-53
2022/05/30 17:09:26;;;;;;;8.95;2.83;;;25.50;99.90;;;;;;5050549;28;20404;-53
2022/05/30 17:12:30;;;;;;;8.48;2.65;;;25.50;99.90;;;;;;5049818;28;20056;-56
2022/05/30 17:15:37;;;;;;;11.98;3.00;;;25.30;99.90;;;;;;5041686;28;20048;-53
2022/05/30 17:18:42;;;;;;;7.82;3.10;;;25.30;99.90;;;;;;5048850;28;20052;-55
2022/05/30 17:21:47;;;;;;;7.18;2.35;;;25.20;99.90;;;;;;5048851;28;20539;-52